Time;durP1;ratioP1;P1;durP2;ratioP2;P2;SDS_P1;SDS_P2;PMS_P1;PMS_P2;Temp;Humidity;BMP_temperature;BMP_pressure;BME280_temperature;BME280_humidity;BME280_pressure;Samples;Min_cycle;Max_cycle;Signal;HPM_P1;HPM_P2
2023/08/22 00:00:04;;;;;;;4.30;1.60;;;;;;;;;;5048376;28;20020;-71
2023/08/22 00:02:29;;;;;;;4.70;1.95;;;;;;;;;;5048660;28;20020;-69
2023/08/22 00:04:54;;;;;;;5.65;2.00;;;;;;;;;;5030566;28;20017;-71
2023/08/22 00:07:19;;;;;;;5.32;1.60;;;;;;;;;;5047347;28;20021;-68
2023/08/22 00:09:45;;;;;;;5.07;1.90;;;;;;;;;;5048548;28;20044;-71
2023/08/22 00:12:10;;;;;;;6.45;1.92;;;;;;;;;;5048433;28;20238;-69
2023/08/22 00:14:36;;;;;;;3.55;1.60;;;;;;;;;;5047084;28;20044;-72
2023/08/22 00:17:01;;;;;;;6.30;1.80;;;;;;;;;;5048076;28;20481;-70
2023/08/22 00:19:26;;;;;;;8.90;1.92;;;;;;;;;;5047239;28;20032;-71
2023/08/22 00:21:52;;;;;;;8.18;1.90;;;;;;;;;;5048434;28;20021;-72
2023/08/22 00:24:18;;;;;;;12.05;2.30;;;;;;;;;;5029916;28;20024;-70
2023/08/22 00:26:43;;;;;;;4.82;1.83;;;;;;;;;;5048391;28;20017;-71
2023/08/22 00:29:08;;;;;;;4.47;1.57;;;;;;;;;;5042789;28;20489;-70
2023/08/22 00:31:33;;;;;;;6.18;1.80;;;;;;;;;;5047999;28;20285;-71
2023/08/22 00:34:01;;;;;;;5.63;1.70;;;;;;;;;;5047697;28;20005;-68
2023/08/22 00:36:26;;;;;;;6.15;1.80;;;;;;;;;;5049829;28;20043;-71
2023/08/22 00:38:51;;;;;;;4.95;1.75;;;;;;;;;;5057111;28;20068;-70
2023/08/22 00:41:17;;;;;;;8.03;2.50;;;;;;;;;;5058874;28;20017;-70
2023/08/22 00:43:42;;;;;;;6.82;1.63;;;;;;;;;;5054457;28;20254;-70
2023/08/22 00:46:08;;;;;;;4.70;1.98;;;;;;;;;;5047895;28;20024;-67
2023/08/22 00:48:33;;;;;;;6.53;1.98;;;;;;;;;;5047183;28;20031;-71
2023/08/22 00:50:58;;;;;;;5.15;1.70;;;;;;;;;;5047314;28;20063;-70
2023/08/22 00:53:25;;;;;;;6.55;2.13;;;;;;;;;;5050224;28;20486;-70
2023/08/22 00:55:50;;;;;;;10.73;1.80;;;;;;;;;;5051044;28;20481;-70
2023/08/22 00:58:16;;;;;;;5.90;1.88;;;;;;;;;;5032491;28;20071;-70
2023/08/22 01:00:41;;;;;;;7.43;2.15;;;;;;;;;;5051462;28;20478;-70
2023/08/22 01:03:06;;;;;;;6.28;1.70;;;;;;;;;;5051100;28;20024;-68
2023/08/22 01:05:34;;;;;;;8.60;2.15;;;;;;;;;;5032407;28;20061;-70
2023/08/22 01:08:02;;;;;;;10.40;1.73;;;;;;;;;;5050351;28;20466;-71
2023/08/22 01:10:33;;;;;;;7.63;1.90;;;;;;;;;;5051540;28;20040;-70
2023/08/22 01:13:03;;;;;;;6.07;1.75;;;;;;;;;;5032888;28;20506;-69
2023/08/22 01:15:30;;;;;;;17.42;2.40;;;;;;;;;;5050623;28;20021;-68
2023/08/22 01:17:58;;;;;;;6.78;1.90;;;;;;;;;;5051880;28;20054;-70
2023/08/22 01:20:25;;;;;;;8.65;1.73;;;;;;;;;;5051778;28;20347;-71
2023/08/22 01:22:50;;;;;;;4.68;1.75;;;;;;;;;;5050976;28;20020;-68
2023/08/22 01:25:15;;;;;;;9.38;2.65;;;;;;;;;;5050280;28;20013;-73
2023/08/22 01:27:46;;;;;;;4.78;1.83;;;;;;;;;;5051142;28;20017;-72
2023/08/22 01:30:18;;;;;;;6.75;1.50;;;;;;;;;;5050518;28;20028;-68
2023/08/22 01:32:45;;;;;;;4.85;1.40;;;;;;;;;;5050912;28;20017;-71
2023/08/22 01:35:12;;;;;;;4.65;1.60;;;;;;;;;;5051235;28;20036;-67
2023/08/22 01:37:38;;;;;;;10.85;1.58;;;;;;;;;;5051058;28;20032;-72
2023/08/22 01:40:05;;;;;;;3.78;1.60;;;;;;;;;;5051098;28;20017;-69
2023/08/22 01:42:30;;;;;;;6.55;1.80;;;;;;;;;;5051440;28;20028;-69
2023/08/22 01:44:55;;;;;;;5.32;1.75;;;;;;;;;;5044112;28;20025;-71
2023/08/22 01:47:21;;;;;;;4.60;1.63;;;;;;;;;;5051053;28;20017;-68
2023/08/22 01:49:46;;;;;;;7.18;2.13;;;;;;;;;;5050332;28;20029;-73
2023/08/22 01:52:11;;;;;;;3.88;1.50;;;;;;;;;;5049963;28;20020;-71
2023/08/22 01:54:37;;;;;;;8.10;2.00;;;;;;;;;;5051292;28;20016;-72
2023/08/22 01:57:02;;;;;;;4.97;1.50;;;;;;;;;;5050940;28;20101;-67
2023/08/22 01:59:27;;;;;;;4.80;1.55;;;;;;;;;;5050342;28;20033;-71
2023/08/22 02:01:53;;;;;;;6.38;1.60;;;;;;;;;;5050687;28;20013;-71
2023/08/22 02:04:18;;;;;;;6.53;1.60;;;;;;;;;;5049888;28;20104;-71
2023/08/22 02:06:43;;;;;;;13.43;2.00;;;;;;;;;;5050849;28;20311;-71
2023/08/22 02:09:09;;;;;;;6.45;2.53;;;;;;;;;;5051830;28;20286;-69
2023/08/22 02:11:35;;;;;;;10.05;1.90;;;;;;;;;;5051214;28;20092;-70
2023/08/22 02:14:00;;;;;;;4.60;1.77;;;;;;;;;;5050017;28;20585;-70
2023/08/22 02:16:25;;;;;;;4.28;1.40;;;;;;;;;;5050027;28;20020;-70
2023/08/22 02:18:51;;;;;;;10.75;2.40;;;;;;;;;;5050196;28;20036;-67
2023/08/22 02:21:16;;;;;;;4.63;1.90;;;;;;;;;;5050539;28;20409;-70
2023/08/22 02:23:42;;;;;;;4.75;1.95;;;;;;;;;;5049950;28;20029;-68
2023/08/22 02:26:07;;;;;;;9.25;1.92;;;;;;;;;;5044407;28;20017;-70
2023/08/22 02:28:33;;;;;;;4.13;1.80;;;;;;;;;;5045478;28;20087;-70
2023/08/22 02:30:58;;;;;;;7.32;1.67;;;;;;;;;;5048835;28;20071;-68
2023/08/22 02:33:23;;;;;;;7.43;1.77;;;;;;;;;;5049660;28;20025;-70
2023/08/22 02:35:49;;;;;;;7.15;1.70;;;;;;;;;;5049761;28;20017;-69
2023/08/22 02:38:14;;;;;;;6.95;1.73;;;;;;;;;;5025871;28;20069;-70
2023/08/22 02:40:39;;;;;;;4.43;1.80;;;;;;;;;;5047377;28;20063;-69
2023/08/22 02:43:04;;;;;;;7.10;2.05;;;;;;;;;;5049730;28;20079;-68
2023/08/22 02:45:30;;;;;;;5.28;2.22;;;;;;;;;;5048128;28;20170;-68
2023/08/22 02:47:55;;;;;;;8.80;2.42;;;;;;;;;;5031685;28;20036;-69
2023/08/22 02:50:23;;;;;;;4.85;1.75;;;;;;;;;;5049715;28;20126;-70
2023/08/22 02:52:48;;;;;;;11.93;1.90;;;;;;;;;;5048033;28;20047;-71
2023/08/22 02:55:13;;;;;;;8.32;2.08;;;;;;;;;;5041407;28;20041;-70
2023/08/22 02:57:39;;;;;;;9.93;2.03;;;;;;;;;;5049970;28;20017;-69
2023/08/22 03:00:06;;;;;;;3.13;1.60;;;;;;;;;;5048553;28;20028;-71
2023/08/22 03:02:31;;;;;;;6.88;2.10;;;;;;;;;;5030365;28;20112;-68
2023/08/22 03:04:57;;;;;;;8.55;2.53;;;;;;;;;;5048536;28;20096;-67
2023/08/22 03:07:22;;;;;;;5.82;1.80;;;;;;;;;;5049457;28;20013;-70
2023/08/22 03:09:47;;;;;;;8.70;2.38;;;;;;;;;;5049344;28;20013;-68
2023/08/22 03:12:12;;;;;;;8.82;2.00;;;;;;;;;;5047827;28;20028;-69
2023/08/22 03:14:38;;;;;;;13.98;2.25;;;;;;;;;;5046839;28;20432;-71
2023/08/22 03:17:03;;;;;;;4.78;1.73;;;;;;;;;;5047081;28;20100;-71
2023/08/22 03:19:28;;;;;;;11.55;2.50;;;;;;;;;;5048640;28;20013;-70
2023/08/22 03:21:53;;;;;;;7.35;2.42;;;;;;;;;;5035872;28;20032;-70
2023/08/22 03:24:19;;;;;;;12.68;2.10;;;;;;;;;;5048525;28;20021;-68
2023/08/22 03:26:44;;;;;;;8.98;2.08;;;;;;;;;;5049364;28;20090;-71
2023/08/22 03:29:09;;;;;;;7.63;2.10;;;;;;;;;;5043784;28;20094;-69
2023/08/22 03:31:34;;;;;;;4.78;2.10;;;;;;;;;;5047675;28;20326;-70
2023/08/22 03:33:59;;;;;;;11.52;2.13;;;;;;;;;;5047702;28;20589;-69
2023/08/22 03:36:25;;;;;;;12.93;2.28;;;;;;;;;;5049288;28;20009;-66
2023/08/22 03:38:51;;;;;;;10.32;2.90;;;;;;;;;;5048782;28;20084;-69
2023/08/22 03:41:16;;;;;;;10.15;2.20;;;;;;;;;;5048208;28;20332;-69
2023/08/22 03:43:41;;;;;;;6.20;2.20;;;;;;;;;;5047813;28;20577;-67
2023/08/22 03:46:07;;;;;;;6.97;1.93;;;;;;;;;;5047344;28;20025;-68
2023/08/22 03:48:32;;;;;;;6.63;2.30;;;;;;;;;;5048064;28;20663;-70
2023/08/22 03:50:59;;;;;;;4.13;1.75;;;;;;;;;;5048303;28;20017;-67
2023/08/22 03:53:25;;;;;;;9.73;2.28;;;;;;;;;;5048956;28;20016;-69
2023/08/22 03:55:50;;;;;;;6.63;2.20;;;;;;;;;;5048027;28;20013;-71
2023/08/22 03:58:15;;;;;;;5.60;2.25;;;;;;;;;;5048055;28;20100;-69
2023/08/22 04:00:40;;;;;;;5.38;2.20;;;;;;;;;;5046902;28;20028;-70
2023/08/22 04:03:05;;;;;;;5.53;2.38;;;;;;;;;;5048505;28;20052;-70
2023/08/22 04:05:31;;;;;;;20.52;2.45;;;;;;;;;;5047649;28;20119;-69
2023/08/22 04:07:56;;;;;;;5.72;2.20;;;;;;;;;;5048406;28;20652;-67
2023/08/22 04:10:22;;;;;;;8.02;2.40;;;;;;;;;;5048034;28;20108;-71
2023/08/22 04:12:47;;;;;;;4.95;2.17;;;;;;;;;;5048871;28;20381;-69
2023/08/22 04:15:12;;;;;;;7.90;2.22;;;;;;;;;;5041924;28;20029;-69
2023/08/22 04:17:44;;;;;;;6.28;2.22;;;;;;;;;;5047648;28;20035;-69
2023/08/22 04:20:10;;;;;;;10.00;2.15;;;;;;;;;;5048299;28;20017;-72
2023/08/22 04:22:36;;;;;;;7.05;2.67;;;;;;;;;;5048752;28;20482;-72
2023/08/22 04:25:01;;;;;;;6.10;2.17;;;;;;;;;;5047270;28;20021;-72
2023/08/22 04:27:26;;;;;;;5.45;2.28;;;;;;;;;;5043471;28;20017;-68
2023/08/22 04:29:52;;;;;;;7.85;2.72;;;;;;;;;;5043731;28;20016;-71
2023/08/22 04:32:17;;;;;;;6.35;2.72;;;;;;;;;;5045911;28;20203;-70
2023/08/22 04:34:42;;;;;;;7.43;2.65;;;;;;;;;;5047179;28;20100;-71
2023/08/22 04:37:07;;;;;;;8.23;3.05;;;;;;;;;;5048256;28;20092;-70
2023/08/22 04:39:32;;;;;;;9.85;3.00;;;;;;;;;;5038555;28;20031;-68
2023/08/22 04:41:58;;;;;;;5.78;2.25;;;;;;;;;;5047772;28;20013;-70
2023/08/22 04:44:23;;;;;;;5.28;2.25;;;;;;;;;;5046182;28;20466;-68
2023/08/22 04:46:48;;;;;;;10.30;2.80;;;;;;;;;;5047215;28;20017;-71
2023/08/22 04:49:13;;;;;;;6.78;2.90;;;;;;;;;;5028802;28;20025;-67
2023/08/22 04:51:39;;;;;;;10.65;3.17;;;;;;;;;;5047869;28;20131;-70
2023/08/22 04:54:04;;;;;;;6.93;2.53;;;;;;;;;;5046616;28;20143;-69
2023/08/22 04:56:29;;;;;;;6.95;2.60;;;;;;;;;;5046906;28;20106;-68
2023/08/22 04:58:54;;;;;;;8.30;2.97;;;;;;;;;;5035583;28;20021;-66
2023/08/22 05:01:20;;;;;;;6.55;2.85;;;;;;;;;;5036103;28;20023;-68
2023/08/22 05:03:48;;;;;;;9.50;2.65;;;;;;;;;;5042304;28;20067;-66
2023/08/22 05:06:13;;;;;;;15.00;3.20;;;;;;;;;;5047514;28;20021;-68
2023/08/22 05:08:38;;;;;;;9.45;3.05;;;;;;;;;;5046935;28;20025;-67
2023/08/22 05:11:03;;;;;;;7.25;3.28;;;;;;;;;;5043909;28;20068;-67
2023/08/22 05:13:29;;;;;;;5.95;3.03;;;;;;;;;;5047427;28;20036;-67
2023/08/22 05:15:54;;;;;;;7.47;3.10;;;;;;;;;;5045435;28;20585;-66
2023/08/22 05:18:19;;;;;;;9.60;3.25;;;;;;;;;;5045525;28;20539;-67
2023/08/22 05:20:44;;;;;;;10.05;3.42;;;;;;;;;;5045034;28;20013;-66
2023/08/22 05:23:10;;;;;;;7.25;3.42;;;;;;;;;;5045555;28;20143;-66
2023/08/22 05:25:35;;;;;;;6.90;3.28;;;;;;;;;;5046760;28;20028;-67
2023/08/22 05:28:00;;;;;;;10.52;3.80;;;;;;;;;;5046810;28;20013;-64
2023/08/22 05:30:26;;;;;;;8.45;3.28;;;;;;;;;;5036868;28;20116;-67
2023/08/22 05:32:51;;;;;;;12.13;4.45;;;;;;;;;;5046106;28;20028;-62
2023/08/22 05:35:16;;;;;;;9.63;3.65;;;;;;;;;;5045608;28;20013;-65
2023/08/22 05:37:41;;;;;;;13.10;3.78;;;;;;;;;;5040000;28;20030;-67
2023/08/22 05:40:08;;;;;;;13.70;4.45;;;;;;;;;;5044159;28;20009;-66
2023/08/22 05:42:33;;;;;;;10.30;4.10;;;;;;;;;;5049553;28;20438;-65
2023/08/22 05:44:58;;;;;;;11.55;4.00;;;;;;;;;;5022286;28;20019;-67
2023/08/22 05:47:23;;;;;;;6.82;3.00;;;;;;;;;;5048696;28;20028;-67
2023/08/22 05:49:49;;;;;;;10.27;4.63;;;;;;;;;;5050087;28;20047;-67
2023/08/22 05:52:14;;;;;;;8.57;3.95;;;;;;;;;;5051455;28;20016;-65
2023/08/22 05:54:40;;;;;;;9.20;3.67;;;;;;;;;;5049430;28;20009;-63
2023/08/22 05:57:05;;;;;;;12.95;3.53;;;;;;;;;;5050556;28;20037;-68
2023/08/22 05:59:30;;;;;;;9.80;3.72;;;;;;;;;;5050874;28;20035;-67
2023/08/22 06:01:56;;;;;;;9.70;3.65;;;;;;;;;;5049312;28;20025;-68
2023/08/22 06:04:21;;;;;;;6.97;3.63;;;;;;;;;;5049325;28;20059;-67
2023/08/22 06:06:46;;;;;;;12.43;4.32;;;;;;;;;;5049701;28;20077;-68
2023/08/22 06:09:12;;;;;;;15.48;4.50;;;;;;;;;;5050103;28;20021;-64
2023/08/22 06:11:37;;;;;;;12.50;4.28;;;;;;;;;;5050381;28;20109;-68
2023/08/22 06:14:03;;;;;;;8.70;3.88;;;;;;;;;;5050110;28;20016;-67
2023/08/22 06:16:28;;;;;;;13.20;4.10;;;;;;;;;;5049574;28;20016;-65
2023/08/22 06:18:53;;;;;;;10.48;3.90;;;;;;;;;;5049879;28;20016;-67
2023/08/22 06:21:19;;;;;;;9.10;4.33;;;;;;;;;;5050354;28;20044;-65
2023/08/22 06:23:44;;;;;;;16.97;5.50;;;;;;;;;;5049812;28;20747;-69
2023/08/22 06:26:13;;;;;;;13.00;4.93;;;;;;;;;;5050534;28;20254;-66
2023/08/22 06:28:38;;;;;;;11.57;4.40;;;;;;;;;;5044825;28;20258;-65
2023/08/22 06:31:05;;;;;;;13.82;5.03;;;;;;;;;;5049369;28;20020;-67
2023/08/22 06:33:30;;;;;;;16.13;5.15;;;;;;;;;;5049218;28;20025;-66
2023/08/22 06:35:55;;;;;;;10.10;4.15;;;;;;;;;;5049540;28;20013;-67
2023/08/22 06:38:20;;;;;;;11.80;4.70;;;;;;;;;;5024246;28;20467;-65
2023/08/22 06:40:46;;;;;;;18.27;4.85;;;;;;;;;;5048233;28;20085;-66
2023/08/22 06:43:11;;;;;;;11.95;4.32;;;;;;;;;;5049841;28;20013;-67
2023/08/22 06:45:36;;;;;;;7.95;4.35;;;;;;;;;;5048506;28;20025;-67
2023/08/22 06:48:02;;;;;;;17.93;5.30;;;;;;;;;;5049154;28;20028;-67
2023/08/22 06:50:27;;;;;;;14.38;5.15;;;;;;;;;;5048722;28;20281;-64
2023/08/22 06:52:52;;;;;;;10.50;4.68;;;;;;;;;;5049916;28;20074;-68
2023/08/22 06:55:17;;;;;;;8.25;4.75;;;;;;;;;;5048820;28;20021;-67
2023/08/22 06:57:43;;;;;;;11.75;4.93;;;;;;;;;;5049478;28;20427;-68
2023/08/22 07:00:14;;;;;;;8.90;4.00;;;;;;;;;;5049208;28;20039;-68
2023/08/22 07:02:41;;;;;;;10.80;3.80;;;;;;;;;;5048464;28;20035;-69
2023/08/22 07:05:07;;;;;;;16.33;4.35;;;;;;;;;;5043241;28;20017;-68
2023/08/22 07:07:32;;;;;;;11.20;3.92;;;;;;;;;;5049893;28;20009;-68
2023/08/22 07:09:57;;;;;;;13.05;4.63;;;;;;;;;;5049217;28;20016;-65
2023/08/22 07:12:22;;;;;;;9.52;4.50;;;;;;;;;;5041370;28;20025;-68
2023/08/22 07:14:47;;;;;;;14.07;4.93;;;;;;;;;;5041087;28;20070;-65
2023/08/22 07:17:13;;;;;;;12.05;4.63;;;;;;;;;;5039599;28;20270;-69
2023/08/22 07:19:38;;;;;;;8.88;4.60;;;;;;;;;;5042392;28;20051;-67
2023/08/22 07:22:04;;;;;;;7.43;3.95;;;;;;;;;;5042345;28;20029;-67
2023/08/22 07:24:29;;;;;;;11.43;3.70;;;;;;;;;;5041304;28;20032;-68
2023/08/22 07:26:54;;;;;;;11.50;4.60;;;;;;;;;;5040559;28;20029;-68
2023/08/22 07:29:19;;;;;;;10.20;4.43;;;;;;;;;;5040909;28;20250;-66
2023/08/22 07:31:44;;;;;;;13.77;4.80;;;;;;;;;;5023272;28;20022;-67
2023/08/22 07:34:10;;;;;;;8.63;3.90;;;;;;;;;;5041991;28;20021;-68
2023/08/22 07:36:35;;;;;;;12.93;5.38;;;;;;;;;;5040115;28;20281;-69
2023/08/22 07:39:00;;;;;;;12.15;5.25;;;;;;;;;;5042488;28;20100;-67
2023/08/22 07:41:25;;;;;;;9.07;4.43;;;;;;;;;;5041488;28;20385;-66
2023/08/22 07:43:51;;;;;;;8.25;4.50;;;;;;;;;;5041170;28;20044;-67
2023/08/22 07:46:16;;;;;;;10.23;4.75;;;;;;;;;;5039462;28;20385;-67
2023/08/22 07:48:41;;;;;;;9.85;4.30;;;;;;;;;;5041191;28;20488;-66
2023/08/22 07:51:06;;;;;;;12.35;4.32;;;;;;;;;;5040562;28;20422;-66
2023/08/22 07:53:32;;;;;;;13.65;4.38;;;;;;;;;;5041186;28;20386;-68
2023/08/22 07:55:57;;;;;;;11.07;3.95;;;;;;;;;;5028886;28;20082;-68
2023/08/22 07:58:22;;;;;;;7.30;3.85;;;;;;;;;;5040680;28;20089;-70
2023/08/22 08:00:48;;;;;;;11.18;3.65;;;;;;;;;;5028216;28;20009;-66
2023/08/22 08:03:13;;;;;;;8.40;3.50;;;;;;;;;;5038339;28;20030;-69
2023/08/22 08:05:38;;;;;;;12.82;3.85;;;;;;;;;;5039889;28;20104;-68
2023/08/22 08:08:07;;;;;;;13.03;4.90;;;;;;;;;;5051729;22;20052;-88
2023/08/22 08:10:35;;;;;;;7.30;3.25;;;;;;;;;;5056672;28;20324;-89
2023/08/22 08:13:18;;;;;;;10.55;3.60;;;;;;;;;;5041193;28;20099;-88
2023/08/22 08:15:49;;;;;;;11.50;3.30;;;;;;;;;;5042761;28;20422;-88
2023/08/22 08:18:14;;;;;;;10.93;4.03;;;;;;;;;;5052483;28;20115;-88
2023/08/22 08:20:46;;;;;;;10.63;3.58;;;;;;;;;;5047019;28;20027;-87
2023/08/22 08:23:16;;;;;;;9.57;3.50;;;;;;;;;;5040853;28;20036;-88
2023/08/22 08:25:44;;;;;;;9.70;3.97;;;;;;;;;;5040422;28;20106;-88
2023/08/22 08:28:09;;;;;;;7.65;3.17;;;;;;;;;;5041813;28;20024;-89
2023/08/22 08:30:38;;;;;;;19.85;3.25;;;;;;;;;;5047093;28;20033;-88
2023/08/22 08:33:07;;;;;;;9.07;3.55;;;;;;;;;;5033742;28;20040;-89
2023/08/22 08:35:35;;;;;;;12.25;4.03;;;;;;;;;;5043811;28;20029;-88
2023/08/22 08:38:00;;;;;;;7.60;3.45;;;;;;;;;;5052878;28;20028;-89
2023/08/22 08:40:35;;;;;;;12.75;3.50;;;;;;;;;;5055392;28;20204;-89
2023/08/22 08:43:15;;;;;;;13.27;3.83;;;;;;;;;;5053170;28;20025;-88
2023/08/22 08:45:43;;;;;;;;;;;;;;;;;;5060835;28;20045;-89
2023/08/22 08:48:09;;;;;;;13.95;3.50;;;;;;;;;;5035498;28;19905;-87
2023/08/22 08:50:39;;;;;;;12.38;4.00;;;;;;;;;;5053179;28;20029;-90
2023/08/22 08:53:06;;;;;;;16.52;3.72;;;;;;;;;;5042827;28;20371;-88
2023/08/22 08:55:40;;;;;;;14.25;4.00;;;;;;;;;;5046414;28;20037;-89
2023/08/22 08:58:14;;;;;;;14.32;4.07;;;;;;;;;;5046709;28;20029;-88
2023/08/22 09:00:46;;;;;;;16.70;3.58;;;;;;;;;;5049250;28;20032;-89
2023/08/22 09:03:11;;;;;;;10.02;3.58;;;;;;;;;;5045394;28;20025;-88
2023/08/22 09:05:38;;;;;;;27.80;4.57;;;;;;;;;;5057402;28;20063;-88
2023/08/22 09:08:17;;;;;;;10.50;3.63;;;;;;;;;;5045632;28;20025;-89
2023/08/22 09:10:56;;;;;;;12.13;3.78;;;;;;;;;;5053265;28;20017;-91
2023/08/22 09:13:28;;;;;;;7.97;3.33;;;;;;;;;;5057195;28;20032;-89
2023/08/22 09:16:02;;;;;;;12.73;3.80;;;;;;;;;;5058741;28;20021;-90
2023/08/22 09:18:52;;;;;;;15.63;4.28;;;;;;;;;;5061983;28;20465;-90
2023/08/22 09:21:19;;;;;;;;;;;;;;;;;;5067789;28;20044;-91
2023/08/22 09:23:52;;;;;;;9.18;3.63;;;;;;;;;;5057088;28;19905;-90
2023/08/22 09:26:34;;;;;;;10.00;3.70;;;;;;;;;;5066921;28;20037;-88
2023/08/22 09:29:32;;;;;;;11.57;3.83;;;;;;;;;;5045984;28;20021;-91
2023/08/22 09:32:01;;;;;;;18.33;4.68;;;;;;;;;;5051145;28;20036;-91
2023/08/22 09:34:58;;;;;;;;;;;;;;;;;;;;;
2023/08/22 09:37:55;;;;;;;28.23;4.50;;;;;;;;;;5057395;28;20124;-90
2023/08/22 09:43:48;;;;;;;13.30;4.05;;;;;;;;;;5058740;28;20033;-89
2023/08/22 09:46:27;;;;;;;8.05;3.90;;;;;;;;;;5043112;28;20044;-89
2023/08/22 09:48:59;;;;;;;11.15;4.18;;;;;;;;;;5055076;28;20033;-90
2023/08/22 09:51:24;;;;;;;11.88;4.25;;;;;;;;;;5061606;28;20032;-85
2023/08/22 09:54:03;;;;;;;9.57;4.13;;;;;;;;;;5053428;28;20021;-90
2023/08/22 09:56:47;;;;;;;;;;;;;;;;;;;;;
2023/08/22 09:59:19;;;;;;;14.32;4.13;;;;;;;;;;5060226;28;20112;-90
2023/08/22 10:01:55;;;;;;;9.82;3.67;;;;;;;;;;5047257;28;20143;-90
2023/08/22 10:04:25;;;;;;;12.23;4.47;;;;;;;;;;5066014;28;20040;-89
2023/08/22 10:07:03;;;;;;;;;;;;;;;;;;;;;
2023/08/22 10:09:39;;;;;;;11.70;4.13;;;;;;;;;;5065558;28;20073;-90
2023/08/22 10:12:30;;;;;;;21.35;5.50;;;;;;;;;;5052850;28;20039;-91
2023/08/22 10:15:11;;;;;;;11.57;4.50;;;;;;;;;;5050805;28;20005;-91
2023/08/22 10:17:59;;;;;;;10.88;4.43;;;;;;;;;;5064925;28;20044;-91
2023/08/22 10:20:28;;;;;;;11.43;4.47;;;;;;;;;;5066843;28;20020;-89
2023/08/22 10:23:09;;;;;;;11.20;3.63;;;;;;;;;;5048429;28;20021;-91
2023/08/22 10:25:59;;;;;;;14.77;4.40;;;;;;;;;;5067116;28;20017;-90
2023/08/22 10:28:46;;;;;;;12.38;4.30;;;;;;;;;;5041338;28;20028;-89
2023/08/22 10:34:03;;;;;;;7.75;3.97;;;;;;;;;;5069442;28;20025;-89
2023/08/22 10:36:29;;;;;;;9.98;4.05;;;;;;;;;;5064238;28;20069;-90
2023/08/22 10:39:12;;;;;;;14.43;4.47;;;;;;;;;;5066288;28;20023;-90
2023/08/22 10:42:15;;;;;;;;;;;;;;;;;;;;;
2023/08/22 10:44:49;;;;;;;8.05;4.10;;;;;;;;;;5064600;28;20460;-91
2023/08/22 10:47:18;;;;;;;12.18;4.00;;;;;;;;;;5053932;28;20036;-84
2023/08/22 10:49:45;;;;;;;;;;;;;;;;;;5073125;28;20013;-90
2023/08/22 10:52:36;;;;;;;8.67;4.37;;;;;;;;;;5074007;28;19909;-88
2023/08/22 10:55:11;;;;;;;8.93;4.35;;;;;;;;;;5066598;28;20426;-89
2023/08/22 10:57:56;;;;;;;;;;;;;;;;;;;;;
2023/08/22 11:00:23;;;;;;;13.95;4.22;;;;;;;;;;5072408;28;20032;-91
2023/08/22 11:03:15;;;;;;;7.68;3.83;;;;;;;;;;5061999;28;20106;-90
2023/08/22 11:05:43;;;;;;;11.77;4.15;;;;;;;;;;5071465;28;20048;-90
2023/08/22 11:08:24;;;;;;;12.80;4.47;;;;;;;;;;5065025;28;20171;-90
2023/08/22 11:11:03;;;;;;;13.70;4.05;;;;;;;;;;5063780;28;20040;-92
2023/08/22 11:13:42;;;;;;;9.02;3.95;;;;;;;;;;5057655;28;20060;-92
2023/08/22 11:16:15;;;;;;;10.25;4.22;;;;;;;;;;5048127;28;20024;-89
2023/08/22 11:18:45;;;;;;;7.45;3.53;;;;;;;;;;5043069;28;20044;-92
2023/08/22 11:24:17;;;;;;;12.90;4.22;;;;;;;;;;5060087;28;20080;-91
2023/08/22 11:29:57;;;;;;;9.38;3.83;;;;;;;;;;5065584;28;20073;-91
2023/08/22 11:32:27;;;;;;;10.90;3.95;;;;;;;;;;5075921;28;20025;-90
2023/08/22 11:35:03;;;;;;;12.45;4.43;;;;;;;;;;5058937;28;20104;-92
2023/08/22 11:38:04;;;;;;;13.77;4.20;;;;;;;;;;5059966;28;20029;-92
2023/08/22 11:40:32;;;;;;;9.95;3.67;;;;;;;;;;5046318;28;20353;-91
2023/08/22 11:43:55;;;;;;;;;;;;;;;;;;;;;
2023/08/22 11:49:16;;;;;;;10.57;3.50;;;;;;;;;;4958005;28;20051;-91
2023/08/22 11:52:00;;;;;;;7.47;3.90;;;;;;;;;;4939880;29;20084;-92
2023/08/22 11:54:32;;;;;;;12.25;4.28;;;;;;;;;;4942190;29;20079;-91
2023/08/22 11:57:14;;;;;;;13.48;4.43;;;;;;;;;;4961520;29;20035;-90
2023/08/22 11:59:42;;;;;;;11.27;4.03;;;;;;;;;;4961833;29;20036;-91
2023/08/22 12:02:21;;;;;;;;;;;;;;;;;;;;;
2023/08/22 12:04:57;;;;;;;12.82;4.03;;;;;;;;;;4959429;29;20106;-93
2023/08/22 12:07:32;;;;;;;11.82;3.65;;;;;;;;;;4942878;29;20027;-92
2023/08/22 12:10:13;;;;;;;14.50;3.60;;;;;;;;;;4962144;29;20046;-91
2023/08/22 12:12:45;;;;;;;9.25;3.63;;;;;;;;;;4943339;29;20041;-91
2023/08/22 12:15:37;;;;;;;12.82;4.10;;;;;;;;;;4946636;29;20077;-93
2023/08/22 12:18:42;;;;;;;14.35;3.85;;;;;;;;;;4948560;29;20388;-91
2023/08/22 12:21:33;;;;;;;8.07;4.30;;;;;;;;;;4948162;29;20071;-92
2023/08/22 12:24:44;;;;;;;12.38;3.97;;;;;;;;;;5044985;28;20039;-92
2023/08/22 12:27:11;;;;;;;11.07;3.90;;;;;;;;;;5063309;28;20453;-92
2023/08/22 12:30:40;;;;;;;;;;;;;;;;;;;;;
2023/08/22 12:33:15;;;;;;;10.65;4.03;;;;;;;;;;5003669;28;20098;-91
2023/08/22 12:35:44;;;;;;;10.90;4.43;;;;;;;;;;4979034;28;20032;-93
2023/08/22 12:41:07;;;;;;;13.98;4.45;;;;;;;;;;5005420;22;20052;-66
2023/08/22 12:43:32;;;;;;;15.85;4.97;;;;;;;;;;5008716;28;20026;-71
2023/08/22 12:45:57;;;;;;;12.57;3.90;;;;;;;;;;5027453;28;20071;-68
2023/08/22 12:48:22;;;;;;;15.52;3.85;;;;;;;;;;5027300;28;20300;-69
2023/08/22 12:50:47;;;;;;;11.63;3.83;;;;;;;;;;5027767;28;20041;-71
2023/08/22 12:53:13;;;;;;;7.87;3.60;;;;;;;;;;5028116;28;20018;-69
2023/08/22 12:55:40;;;;;;;13.60;4.30;;;;;;;;;;5027044;28;20251;-68
2023/08/22 12:58:06;;;;;;;13.20;4.13;;;;;;;;;;5022363;28;20271;-68
2023/08/22 13:00:31;;;;;;;15.07;3.38;;;;;;;;;;5018082;28;20028;-72
2023/08/22 13:02:56;;;;;;;8.40;3.78;;;;;;;;;;5020361;28;20021;-67
2023/08/22 13:05:22;;;;;;;10.77;5.22;;;;;;;;;;5021146;28;20630;-70
2023/08/22 13:07:47;;;;;;;13.85;3.67;;;;;;;;;;5013415;28;20073;-73
2023/08/22 13:10:13;;;;;;;13.50;4.40;;;;;;;;;;5019923;28;20061;-74
2023/08/22 13:12:38;;;;;;;10.60;4.00;;;;;;;;;;5020055;28;20017;-70
2023/08/22 13:15:03;;;;;;;14.95;4.32;;;;;;;;;;5020957;28;20104;-70
2023/08/22 13:17:30;;;;;;;18.65;4.18;;;;;;;;;;5020949;28;20045;-72
2023/08/22 13:19:55;;;;;;;9.55;3.63;;;;;;;;;;5021912;28;20109;-67
2023/08/22 13:22:21;;;;;;;10.13;3.60;;;;;;;;;;5020012;28;20116;-69
2023/08/22 13:24:46;;;;;;;8.40;3.20;;;;;;;;;;5019795;28;20193;-73
2023/08/22 13:27:11;;;;;;;13.00;3.97;;;;;;;;;;5020560;28;20137;-70
2023/08/22 13:29:37;;;;;;;7.80;3.20;;;;;;;;;;5021595;28;20029;-70
2023/08/22 13:32:02;;;;;;;6.60;2.70;;;;;;;;;;5019792;28;20038;-69
2023/08/22 13:34:28;;;;;;;8.18;3.30;;;;;;;;;;5022818;28;20013;-68
2023/08/22 13:36:53;;;;;;;7.30;3.00;;;;;;;;;;5029812;28;20013;-69
2023/08/22 13:39:18;;;;;;;9.70;3.10;;;;;;;;;;5024616;28;20048;-71
2023/08/22 13:41:43;;;;;;;8.27;2.90;;;;;;;;;;5026571;28;20259;-69
2023/08/22 13:44:08;;;;;;;11.02;4.35;;;;;;;;;;5006950;28;20301;-70
2023/08/22 13:46:34;;;;;;;12.20;3.10;;;;;;;;;;5026325;28;20466;-66
2023/08/22 13:48:59;;;;;;;7.50;3.00;;;;;;;;;;5008009;28;20966;-70
2023/08/22 13:51:24;;;;;;;16.25;3.60;;;;;;;;;;5026002;28;20756;-69
2023/08/22 13:53:49;;;;;;;10.30;3.00;;;;;;;;;;5025728;28;20048;-68
2023/08/22 13:56:16;;;;;;;6.87;3.20;;;;;;;;;;5027184;28;20016;-70
2023/08/22 13:58:41;;;;;;;8.73;2.80;;;;;;;;;;5027726;28;20255;-71
2023/08/22 14:01:06;;;;;;;9.27;2.97;;;;;;;;;;5031674;28;20025;-66
2023/08/22 14:03:31;;;;;;;11.15;2.63;;;;;;;;;;5011301;28;20258;-73
2023/08/22 14:05:57;;;;;;;8.10;2.90;;;;;;;;;;5029847;28;20374;-71
2023/08/22 14:08:22;;;;;;;9.60;3.20;;;;;;;;;;5030960;28;20021;-71
2023/08/22 14:10:47;;;;;;;7.00;2.17;;;;;;;;;;5030648;28;20346;-70
2023/08/22 14:13:13;;;;;;;18.13;3.07;;;;;;;;;;5030431;28;20741;-68
2023/08/22 14:15:39;;;;;;;7.57;2.90;;;;;;;;;;5030405;28;20811;-69
2023/08/22 14:18:04;;;;;;;14.45;2.67;;;;;;;;;;5029855;28;20048;-70
2023/08/22 14:20:29;;;;;;;17.00;2.50;;;;;;;;;;5030366;28;20072;-72
2023/08/22 14:22:54;;;;;;;10.63;4.00;;;;;;;;;;5012030;28;20530;-71
2023/08/22 14:25:20;;;;;;;13.13;3.33;;;;;;;;;;5029589;28;20255;-71
2023/08/22 14:27:45;;;;;;;5.60;2.37;;;;;;;;;;5031510;28;20025;-66
2023/08/22 14:30:12;;;;;;;5.07;2.03;;;;;;;;;;5030575;28;20278;-71
2023/08/22 14:32:37;;;;;;;7.50;2.38;;;;;;;;;;5030378;28;20024;-70
2023/08/22 14:35:02;;;;;;;7.80;2.63;;;;;;;;;;5029839;28;20029;-70
2023/08/22 14:37:28;;;;;;;9.65;3.28;;;;;;;;;;5030470;28;20262;-71
2023/08/22 14:39:54;;;;;;;10.80;3.50;;;;;;;;;;5030198;28;20448;-69
2023/08/22 14:42:19;;;;;;;9.98;3.42;;;;;;;;;;5025528;28;20383;-70
2023/08/22 14:44:44;;;;;;;8.75;2.80;;;;;;;;;;5028131;28;20104;-68
2023/08/22 14:47:10;;;;;;;9.73;2.28;;;;;;;;;;5029666;28;20101;-68
2023/08/22 14:49:35;;;;;;;10.67;2.23;;;;;;;;;;5029615;28;20018;-68
2023/08/22 14:52:00;;;;;;;9.40;2.53;;;;;;;;;;5029310;28;20278;-71
2023/08/22 14:54:25;;;;;;;13.43;2.80;;;;;;;;;;5018603;28;20262;-70
2023/08/22 14:56:52;;;;;;;7.80;2.45;;;;;;;;;;5029882;28;20265;-67
2023/08/22 14:59:17;;;;;;;12.70;2.25;;;;;;;;;;5029106;28;20527;-69
2023/08/22 15:01:42;;;;;;;11.50;2.45;;;;;;;;;;5029687;28;20072;-71
2023/08/22 15:04:07;;;;;;;7.80;2.53;;;;;;;;;;5027811;28;20670;-70
2023/08/22 15:06:33;;;;;;;8.40;2.47;;;;;;;;;;5029224;28;20756;-71
2023/08/22 15:08:58;;;;;;;7.73;2.20;;;;;;;;;;5011959;28;20029;-71
2023/08/22 15:11:23;;;;;;;4.43;1.90;;;;;;;;;;5028730;28;20269;-67